Time;durP1;ratioP1;P1;durP2;ratioP2;P2;SDS_P1;SDS_P2;PMS_P1;PMS_P2;Temp;Humidity;BMP_temperature;BMP_pressure;BME280_temperature;BME280_humidity;BME280_pressure;Samples;Min_cycle;Max_cycle;Signal;HPM_P1;HPM_P2
2023/03/05 00:00:00;;;;;;;12.52;2.15;;;;;;;7.60;56.15;102189.28;5120163;28;20044;-63
2023/03/05 00:02:28;;;;;;;11.05;2.83;;;;;;;7.69;56.24;102205.16;5121380;28;20530;-63
2023/03/05 00:04:56;;;;;;;13.02;3.17;;;;;;;7.71;55.59;102205.81;5117942;28;20067;-63
2023/03/05 00:07:24;;;;;;;11.95;3.47;;;;;;;7.71;55.62;102196.94;5122327;28;20112;-63
2023/03/05 00:09:51;;;;;;;9.38;2.08;;;;;;;7.71;56.12;102200.47;5113955;28;20035;-63
2023/03/05 00:12:21;;;;;;;13.68;2.50;;;;;;;7.72;55.86;102202.13;5114753;28;20036;-63
2023/03/05 00:14:48;;;;;;;7.20;2.03;;;;;;;7.68;55.46;102197.28;5112377;28;20063;-63
2023/03/05 00:17:16;;;;;;;7.72;2.25;;;;;;;7.60;55.89;102187.44;5109968;28;20078;-63
2023/03/05 00:19:44;;;;;;;10.88;2.42;;;;;;;7.69;55.94;102199.78;5117570;28;20055;-63
2023/03/05 00:22:12;;;;;;;8.10;2.83;;;;;;;7.69;56.10;102202.47;5119107;28;20138;-63
2023/03/05 00:24:39;;;;;;;11.25;3.53;;;;;;;7.69;56.18;102196.28;5109526;28;20043;-63
2023/03/05 00:27:07;;;;;;;10.98;2.63;;;;;;;7.69;56.09;102201.63;5121381;28;20109;-63
2023/03/05 00:29:36;;;;;;;12.68;2.65;;;;;;;7.68;55.67;102200.81;5117485;28;20054;-62
2023/03/05 00:32:04;;;;;;;12.23;3.30;;;;;;;7.67;56.00;102196.47;5114196;28;20052;-63
2023/03/05 00:34:32;;;;;;;8.25;2.30;;;;;;;7.67;55.76;102193.78;5121314;28;20047;-62
2023/03/05 00:37:00;;;;;;;9.55;2.33;;;;;;;7.66;55.61;102186.75;5125829;28;20111;-62
2023/03/05 00:39:27;;;;;;;13.65;2.50;;;;;;;7.67;55.79;102183.06;5113978;27;20402;-62
2023/03/05 00:41:55;;;;;;;9.80;2.15;;;;;;;7.68;56.56;102191.94;5115975;28;20067;-62
2023/03/05 00:44:23;;;;;;;13.07;3.75;;;;;;;7.69;56.45;102185.59;5117034;28;20050;-63
2023/03/05 00:46:52;;;;;;;8.35;2.55;;;;;;;7.68;56.03;102183.91;5123810;28;20448;-63
2023/03/05 00:49:20;;;;;;;8.13;2.53;;;;;;;7.67;56.60;102172.38;5119987;28;20047;-63
2023/03/05 00:51:48;;;;;;;10.10;2.42;;;;;;;7.69;56.24;102173.03;5119688;28;20134;-63
2023/03/05 00:54:16;;;;;;;5.70;2.20;;;;;;;7.69;56.18;102169.53;5117917;28;20079;-63
2023/03/05 00:56:43;;;;;;;11.32;2.50;;;;;;;7.67;56.21;102164.34;5116375;28;20050;-63
2023/03/05 00:59:11;;;;;;;8.63;2.05;;;;;;;7.69;56.83;102158.81;5122571;28;20103;-63
2023/03/05 01:01:39;;;;;;;8.27;2.40;;;;;;;7.70;56.33;102163.16;5124258;27;20049;-63
2023/03/05 01:04:09;;;;;;;7.95;2.25;;;;;;;7.69;56.38;102167.69;5121668;28;20107;-63
2023/03/05 01:06:41;;;;;;;8.27;2.88;;;;;;;7.69;56.92;102161.50;5120248;28;20043;-63
2023/03/05 01:09:09;;;;;;;13.25;2.58;;;;;;;7.68;56.66;102166.00;5111180;28;20048;-63
2023/03/05 01:11:37;;;;;;;10.63;2.67;;;;;;;7.66;56.72;102157.31;5118170;28;20047;-62
2023/03/05 01:14:04;;;;;;;11.18;2.92;;;;;;;7.66;57.02;102160.00;5115843;28;20059;-63
2023/03/05 01:16:32;;;;;;;6.68;2.88;;;;;;;7.65;56.82;102152.16;5116198;28;20075;-62
2023/03/05 01:19:00;;;;;;;7.72;2.20;;;;;;;7.66;56.50;102149.31;5107534;28;20114;-63
2023/03/05 01:21:29;;;;;;;6.50;2.13;;;;;;;7.64;56.55;102140.59;5118081;28;20412;-63
2023/03/05 01:23:57;;;;;;;8.00;2.10;;;;;;;7.64;57.17;102137.09;5124256;28;20435;-64
2023/03/05 01:26:25;;;;;;;9.85;1.95;;;;;;;7.64;56.47;102139.78;5124586;27;20113;-63
2023/03/05 01:28:53;;;;;;;8.85;2.20;;;;;;;7.63;56.83;102138.94;5119677;28;20123;-63
2023/03/05 01:31:21;;;;;;;10.27;2.67;;;;;;;7.59;56.96;102132.25;5123628;28;20050;-63
2023/03/05 01:33:51;;;;;;;17.13;3.08;;;;;;;7.60;57.64;102128.56;5104639;28;20046;-62
2023/03/05 01:36:19;;;;;;;10.85;2.33;;;;;;;7.61;56.57;102129.41;5116813;28;20043;-62
2023/03/05 01:38:48;;;;;;;9.00;2.70;;;;;;;7.61;57.01;102124.91;5110875;27;20073;-63
2023/03/05 01:41:18;;;;;;;10.85;2.65;;;;;;;7.52;56.62;102109.88;5118576;28;20063;-63
2023/03/05 01:43:47;;;;;;;8.88;2.53;;;;;;;7.60;56.79;102114.38;5124110;28;20064;-62
2023/03/05 01:46:25;;;;;;;9.15;2.40;;;;;;;7.61;56.93;102116.88;5123128;27;20112;-62
2023/03/05 01:48:57;;;;;;;10.88;2.75;;;;;;;7.60;57.00;102107.19;5114755;28;20112;-63
2023/03/05 01:51:28;;;;;;;14.48;3.22;;;;;;;7.61;57.39;102110.69;5116215;27;20043;-62
2023/03/05 01:53:58;;;;;;;9.77;2.30;;;;;;;7.60;57.42;102112.53;5109913;28;20087;-62
2023/03/05 01:56:29;;;;;;;11.48;2.67;;;;;;;7.58;57.13;102101.16;5117867;28;20123;-62
2023/03/05 01:59:02;;;;;;;8.18;2.45;;;;;;;7.59;57.46;102089.47;5119263;28;20052;-63
2023/03/05 02:01:39;;;;;;;8.93;2.30;;;;;;;7.58;57.38;102100.31;5113604;27;20043;-64
2023/03/05 02:04:09;;;;;;;9.18;2.90;;;;;;;7.57;57.64;102085.28;5120815;28;20043;-61
2023/03/05 02:06:38;;;;;;;9.98;2.50;;;;;;;7.55;57.90;102080.09;5120096;28;20040;-63
2023/03/05 02:09:07;;;;;;;8.35;2.42;;;;;;;7.54;57.77;102078.44;5119825;28;20063;-63
2023/03/05 02:11:36;;;;;;;9.45;2.40;;;;;;;7.45;57.31;102061.56;5117605;28;20075;-63
2023/03/05 02:14:05;;;;;;;11.55;3.33;;;;;;;7.45;57.46;102060.75;5119074;28;20151;-63
2023/03/05 02:16:37;;;;;;;10.35;2.53;;;;;;;7.47;58.10;102062.22;5122017;28;20048;-62
2023/03/05 02:19:08;;;;;;;9.25;2.70;;;;;;;7.51;58.00;102068.91;5117883;28;20040;-62
2023/03/05 02:21:40;;;;;;;12.38;2.05;;;;;;;7.53;57.22;102067.91;5118409;28;20082;-62
2023/03/05 02:24:11;;;;;;;7.97;2.22;;;;;;;7.53;57.73;102068.75;5123329;28;20100;-62
2023/03/05 02:26:39;;;;;;;12.15;2.58;;;;;;;7.54;57.40;102056.19;5113768;28;20103;-63
2023/03/05 02:29:09;;;;;;;6.30;1.55;;;;;;;7.51;57.54;102052.03;5123631;28;20048;-63
2023/03/05 02:31:37;;;;;;;16.85;2.63;;;;;;;7.54;57.10;102054.34;5123147;28;20496;-63
2023/03/05 02:34:06;;;;;;;8.45;2.40;;;;;;;7.57;57.31;102053.19;5111568;28;20074;-64
2023/03/05 02:36:34;;;;;;;8.88;2.30;;;;;;;7.57;57.37;102061.19;5121673;28;20629;-63
2023/03/05 02:39:03;;;;;;;5.43;2.00;;;;;;;7.56;57.39;102048.84;5112350;28;20060;-63
2023/03/05 02:41:30;;;;;;;6.18;2.30;;;;;;;7.55;57.33;102047.16;5124029;28;20081;-63
2023/03/05 02:43:58;;;;;;;7.97;2.17;;;;;;;7.55;57.26;102041.81;5122340;28;20094;-63
2023/03/05 02:46:26;;;;;;;9.07;3.20;;;;;;;7.55;58.00;102037.31;5119051;28;20043;-62
2023/03/05 02:48:54;;;;;;;5.45;1.90;;;;;;;7.57;57.71;102039.81;5120505;28;20119;-62
2023/03/05 02:51:21;;;;;;;6.22;1.83;;;;;;;7.58;58.12;102036.13;5117929;28;20139;-63
2023/03/05 02:53:49;;;;;;;8.75;2.08;;;;;;;7.57;57.54;102037.13;5117330;28;20053;-62
2023/03/05 02:56:19;;;;;;;5.13;2.10;;;;;;;7.57;57.72;102026.44;5119498;28;20067;-62
2023/03/05 02:58:46;;;;;;;8.80;2.60;;;;;;;7.55;57.95;102034.63;5122068;28;20151;-63
2023/03/05 03:01:14;;;;;;;10.18;3.55;;;;;;;7.54;58.05;102024.94;5115314;28;20075;-63
2023/03/05 03:03:42;;;;;;;12.05;2.63;;;;;;;7.45;57.62;102008.06;5113931;28;20040;-63
2023/03/05 03:06:09;;;;;;;9.45;2.15;;;;;;;7.53;58.32;102015.25;5119173;28;20062;-63
2023/03/05 03:08:37;;;;;;;8.85;1.88;;;;;;;7.54;57.72;102011.56;5119316;28;20044;-64
2023/03/05 03:11:06;;;;;;;6.32;1.60;;;;;;;7.54;57.59;102011.56;5112416;28;20078;-62
2023/03/05 03:13:36;;;;;;;6.57;2.03;;;;;;;7.54;57.34;102010.72;5116842;28;20576;-64
2023/03/05 03:16:05;;;;;;;7.00;2.80;;;;;;;7.52;58.10;102002.88;5119219;28;20051;-62
2023/03/05 03:18:33;;;;;;;9.45;2.35;;;;;;;7.53;57.39;102003.72;5103641;28;20060;-63
2023/03/05 03:21:01;;;;;;;9.00;2.55;;;;;;;7.50;57.76;102005.72;5115112;28;20071;-63
2023/03/05 03:23:29;;;;;;;4.85;2.38;;;;;;;7.48;57.65;101991.69;5110283;28;20116;-63
2023/03/05 03:25:57;;;;;;;8.48;2.40;;;;;;;7.42;57.25;101989.69;5119086;28;20107;-63
2023/03/05 03:28:25;;;;;;;10.15;2.90;;;;;;;7.47;57.95;101991.84;5119541;28;20043;-62
2023/03/05 03:30:54;;;;;;;9.75;2.55;;;;;;;7.48;58.10;101994.34;5121455;28;20075;-63
2023/03/05 03:33:22;;;;;;;7.35;2.15;;;;;;;7.49;57.53;101989.84;5116858;28;20073;-63
2023/03/05 03:35:50;;;;;;;9.18;2.10;;;;;;;7.48;57.66;101997.03;5119778;28;20053;-62
2023/03/05 03:38:18;;;;;;;11.73;2.08;;;;;;;7.45;57.56;101981.34;5108435;28;20055;-64
2023/03/05 03:40:46;;;;;;;9.95;2.10;;;;;;;7.46;58.00;101974.97;5110682;28;20413;-63
2023/03/05 03:43:14;;;;;;;7.22;2.10;;;;;;;7.46;57.56;101980.31;5122381;28;20051;-63
2023/03/05 03:45:42;;;;;;;10.93;2.45;;;;;;;7.44;57.56;101968.97;5113078;28;20054;-63
2023/03/05 03:48:12;;;;;;;9.98;2.20;;;;;;;7.44;57.82;101968.13;5122515;28;20093;-62
2023/03/05 03:50:39;;;;;;;10.45;3.17;;;;;;;7.46;57.89;101964.28;5122118;28;20075;-63
2023/03/05 03:53:08;;;;;;;10.50;2.17;;;;;;;7.46;57.91;101963.44;5121340;28;20052;-62
2023/03/05 03:55:36;;;;;;;10.93;2.20;;;;;;;7.46;57.89;101953.56;5123365;28;20054;-63
2023/03/05 03:58:03;;;;;;;6.43;1.85;;;;;;;7.45;57.71;101951.06;5123017;28;20082;-64
2023/03/05 04:00:31;;;;;;;5.40;2.33;;;;;;;7.45;57.40;101943.88;5118638;28;20618;-63
2023/03/05 04:02:59;;;;;;;6.72;1.73;;;;;;;7.45;57.93;101941.22;5123338;28;20051;-63
2023/03/05 04:05:28;;;;;;;10.95;2.40;;;;;;;7.45;58.04;101938.53;5122381;28;20075;-63
2023/03/05 04:07:57;;;;;;;11.13;2.20;;;;;;;7.43;57.53;101932.53;5107274;28;20055;-63
2023/03/05 04:10:25;;;;;;;7.50;2.15;;;;;;;7.43;58.04;101940.56;5111417;27;20438;-63
2023/03/05 04:12:52;;;;;;;8.73;2.20;;;;;;;7.41;58.27;101939.91;5123248;28;20115;-63
2023/03/05 04:15:20;;;;;;;11.85;2.95;;;;;;;7.40;57.86;101938.22;5117098;28;20116;-61
2023/03/05 04:17:48;;;;;;;8.13;2.50;;;;;;;7.39;58.15;101930.38;5116621;28;20044;-63
2023/03/05 04:20:17;;;;;;;10.13;2.38;;;;;;;7.39;58.51;101933.06;5108265;28;20089;-63
2023/03/05 04:22:46;;;;;;;6.55;2.13;;;;;;;7.38;58.00;101942.09;5123450;28;20123;-62
2023/03/05 04:25:13;;;;;;;9.55;3.25;;;;;;;7.38;58.39;101934.91;5112350;27;20044;-63
2023/03/05 04:27:41;;;;;;;9.85;2.83;;;;;;;7.38;58.14;101931.38;5121807;28;20075;-62
2023/03/05 04:30:13;;;;;;;10.43;2.47;;;;;;;7.38;58.24;101926.03;5125973;28;20111;-62
2023/03/05 04:32:41;;;;;;;13.95;2.92;;;;;;;7.36;57.92;101928.88;5124643;28;20078;-62
2023/03/05 04:35:09;;;;;;;13.27;3.20;;;;;;;7.34;58.41;101920.22;5118322;28;20043;-62
2023/03/05 04:37:37;;;;;;;12.27;2.85;;;;;;;7.32;58.45;101916.03;5126119;28;20043;-62
2023/03/05 04:40:08;;;;;;;10.50;2.63;;;;;;;7.33;58.12;101915.88;5115253;28;20056;-63
2023/03/05 04:42:35;;;;;;;9.57;2.47;;;;;;;7.34;57.78;101914.03;5122136;28;20043;-62
2023/03/05 04:45:05;;;;;;;5.97;2.22;;;;;;;7.32;57.71;101914.19;5119918;28;20051;-63
2023/03/05 04:47:33;;;;;;;9.98;2.92;;;;;;;7.32;57.87;101914.19;5123199;28;20069;-63
2023/03/05 04:50:02;;;;;;;8.35;2.63;;;;;;;7.32;58.65;101914.19;5116843;28;20530;-63
2023/03/05 04:52:30;;;;;;;8.50;2.80;;;;;;;7.32;58.35;101916.03;5120945;28;20528;-63
2023/03/05 04:54:58;;;;;;;13.02;2.70;;;;;;;7.31;58.62;101912.53;5115758;27;20140;-63
2023/03/05 04:57:27;;;;;;;7.30;2.22;;;;;;;7.31;58.16;101912.53;5124214;28;20083;-62
2023/03/05 04:59:54;;;;;;;14.75;2.85;;;;;;;7.33;58.07;101907.00;5118190;28;20069;-63
2023/03/05 05:02:22;;;;;;;7.32;3.50;;;;;;;7.32;58.66;101900.81;5116822;28;20290;-64
2023/03/05 05:04:52;;;;;;;7.47;2.90;;;;;;;7.32;58.43;101902.66;5121481;28;20077;-64
2023/03/05 05:07:20;;;;;;;7.80;2.75;;;;;;;7.33;58.23;101901.66;5118598;28;20044;-64
2023/03/05 05:09:48;;;;;;;13.73;3.78;;;;;;;7.32;58.14;101900.00;5116387;28;20420;-64
2023/03/05 05:12:16;;;;;;;10.73;3.35;;;;;;;7.32;57.94;101892.81;5120405;27;20043;-63
2023/03/05 05:14:45;;;;;;;10.35;3.55;;;;;;;7.32;58.33;101895.47;5122717;28;20047;-63
2023/03/05 05:17:13;;;;;;;7.20;2.78;;;;;;;7.33;58.62;101901.66;5111030;28;20147;-64
2023/03/05 05:19:40;;;;;;;10.43;3.30;;;;;;;7.33;58.18;101890.97;5121197;28;20043;-64
2023/03/05 05:22:08;;;;;;;11.32;3.13;;;;;;;7.32;57.73;101891.97;5119778;28;20047;-63
2023/03/05 05:24:36;;;;;;;12.70;2.78;;;;;;;7.31;58.74;101882.28;5118700;28;20566;-63
2023/03/05 05:27:04;;;;;;;10.45;2.92;;;;;;;7.30;58.13;101880.63;5119939;28;20079;-63
2023/03/05 05:29:32;;;;;;;14.25;3.38;;;;;;;7.31;58.75;101882.28;5114538;28;20059;-63
2023/03/05 05:32:01;;;;;;;13.70;3.55;;;;;;;7.31;58.28;101874.25;5121405;28;20075;-63
2023/03/05 05:34:29;;;;;;;10.45;3.60;;;;;;;7.30;58.00;101875.28;5118940;28;20543;-63
2023/03/05 05:36:57;;;;;;;9.95;3.10;;;;;;;7.29;58.25;101876.28;5118668;28;20071;-64
2023/03/05 05:39:24;;;;;;;7.60;3.13;;;;;;;7.29;58.33;101876.28;5118501;28;20082;-63
2023/03/05 05:41:52;;;;;;;12.40;4.50;;;;;;;7.30;58.00;101868.09;5111674;28;20067;-62
2023/03/05 05:44:20;;;;;;;9.45;3.78;;;;;;;7.30;58.15;101872.59;5118720;28;20069;-62
2023/03/05 05:46:48;;;;;;;11.40;2.97;;;;;;;7.29;58.52;101878.94;5116463;28;20040;-63
2023/03/05 05:49:17;;;;;;;9.07;3.45;;;;;;;7.23;58.42;101869.78;5120025;28;20069;-63
2023/03/05 05:51:45;;;;;;;9.50;3.58;;;;;;;7.27;58.74;101875.63;5114687;27;20070;-64
2023/03/05 05:54:13;;;;;;;10.45;3.20;;;;;;;7.27;58.63;101876.44;5120961;28;20043;-63
2023/03/05 05:56:42;;;;;;;10.68;3.55;;;;;;;7.26;58.56;101881.97;5121688;28;20511;-63
2023/03/05 05:59:10;;;;;;;11.65;3.70;;;;;;;7.26;58.39;101871.28;5116046;27;20047;-63
2023/03/05 06:01:38;;;;;;;11.48;3.25;;;;;;;7.24;58.97;101863.44;5121345;28;20051;-62
2023/03/05 06:04:06;;;;;;;10.38;3.80;;;;;;;7.34;58.18;101869.41;5110847;28;20067;-62
2023/03/05 06:06:35;;;;;;;8.50;3.70;;;;;;;7.50;58.00;101861.28;5121101;27;20043;-62
2023/03/05 06:09:03;;;;;;;8.77;3.30;;;;;;;7.68;56.96;101852.13;4762052;28;10000250;-64
2023/03/05 06:11:32;;;;;;;10.85;3.58;;;;;;;7.83;57.47;101848.50;5110129;28;20067;-61
2023/03/05 06:14:01;;;;;;;6.68;2.55;;;;;;;8.05;55.94;101846.81;5114275;28;20470;-63
2023/03/05 06:16:30;;;;;;;13.75;3.80;;;;;;;8.22;55.76;101839.47;5106174;28;20126;-61
2023/03/05 06:18:58;;;;;;;11.32;3.40;;;;;;;8.37;54.79;101852.91;5119764;28;20116;-62
2023/03/05 06:21:26;;;;;;;9.68;3.20;;;;;;;8.34;55.62;101848.75;5112287;28;20158;-63
2023/03/05 06:23:57;;;;;;;10.18;3.22;;;;;;;8.26;55.54;101839.94;5119008;28;20640;-63
2023/03/05 06:26:25;;;;;;;8.95;4.40;;;;;;;8.13;55.66;101849.44;5116484;28;20376;-64
2023/03/05 06:28:54;;;;;;;11.30;3.70;;;;;;;8.02;56.75;101844.50;5117144;28;20274;-62
2023/03/05 06:31:25;;;;;;;14.05;3.13;;;;;;;7.92;56.53;101835.06;5108244;28;20078;-63
2023/03/05 06:33:54;;;;;;;10.82;3.42;;;;;;;7.82;57.36;101844.16;5112134;28;20047;-63
2023/03/05 06:36:24;;;;;;;7.25;3.05;;;;;;;7.75;56.94;101843.22;5113749;28;20048;-62
2023/03/05 06:38:53;;;;;;;7.13;3.10;;;;;;;7.68;57.41;101831.56;5116707;28;20047;-62
2023/03/05 06:41:24;;;;;;;7.43;3.03;;;;;;;7.63;57.37;101839.28;5117418;28;20082;-63
2023/03/05 06:43:52;;;;;;;8.82;3.05;;;;;;;7.60;57.83;101842.31;5112630;28;20111;-62
2023/03/05 06:46:21;;;;;;;6.72;3.28;;;;;;;7.56;57.57;101843.69;5111808;28;20039;-62
2023/03/05 06:48:50;;;;;;;6.40;2.90;;;;;;;7.54;58.69;101840.34;5113507;28;20138;-63
2023/03/05 06:51:21;;;;;;;12.02;3.60;;;;;;;7.50;57.80;101849.75;5108545;27;20058;-62
2023/03/05 06:53:49;;;;;;;8.82;3.35;;;;;;;7.48;58.42;101849.09;5116147;28;20138;-62
2023/03/05 06:56:17;;;;;;;9.40;3.08;;;;;;;7.43;58.36;101848.78;5118448;28;20073;-64
2023/03/05 06:58:49;;;;;;;7.72;3.00;;;;;;;7.42;58.46;101842.59;5116301;28;20054;-62
2023/03/05 07:01:17;;;;;;;9.15;2.80;;;;;;;7.34;59.05;101839.16;5116640;28;20066;-63
2023/03/05 07:03:48;;;;;;;8.65;3.08;;;;;;;7.33;58.71;101843.66;5114348;28;20090;-63
2023/03/05 07:06:16;;;;;;;12.05;3.67;;;;;;;7.25;59.14;101827.66;5116224;28;20052;-63
2023/03/05 07:08:44;;;;;;;5.80;2.70;;;;;;;7.31;59.05;101844.84;5112909;28;20338;-62
2023/03/05 07:11:14;;;;;;;6.38;2.60;;;;;;;7.31;59.54;101851.03;5114652;28;20115;-63
2023/03/05 07:13:42;;;;;;;11.77;3.28;;;;;;;7.28;59.70;101846.03;5111559;28;20089;-62
2023/03/05 07:16:16;;;;;;;7.93;2.58;;;;;;;7.26;59.61;101848.06;5115381;28;20491;-65
2023/03/05 07:18:44;;;;;;;7.25;3.03;;;;;;;7.24;60.13;101846.56;5114487;28;20077;-64
2023/03/05 07:21:15;;;;;;;6.03;2.92;;;;;;;7.24;59.29;101842.03;5115364;28;20091;-64
2023/03/05 07:23:43;;;;;;;8.35;2.67;;;;;;;7.24;59.37;101841.22;5106327;28;20075;-64
2023/03/05 07:26:12;;;;;;;6.30;2.40;;;;;;;7.22;59.66;101838.72;5110971;28;20132;-62
2023/03/05 07:28:40;;;;;;;7.05;2.75;;;;;;;7.22;59.63;101836.03;5109142;28;20047;-64
2023/03/05 07:31:14;;;;;;;5.82;2.78;;;;;;;7.23;60.20;101823.50;5116099;28;20107;-63
2023/03/05 07:33:42;;;;;;;6.13;2.45;;;;;;;7.38;59.29;101827.94;5115261;28;20051;-62
2023/03/05 07:36:11;;;;;;;4.15;2.28;;;;;;;7.55;58.92;101825.16;5114022;28;20364;-62
2023/03/05 07:38:39;;;;;;;6.72;2.17;;;;;;;7.71;58.51;101820.50;5101889;28;20048;-62
2023/03/05 07:41:10;;;;;;;5.57;2.15;;;;;;;7.91;57.84;101825.38;5108638;28;20051;-62
2023/03/05 07:43:38;;;;;;;4.45;2.28;;;;;;;8.08;57.82;101821.53;5104126;28;20055;-63
2023/03/05 07:46:07;;;;;;;6.32;2.05;;;;;;;8.29;57.06;101826.19;5123988;28;20075;-63
2023/03/05 07:48:37;;;;;;;7.18;2.20;;;;;;;8.48;56.31;101826.50;5112213;28;20062;-63
2023/03/05 07:51:07;;;;;;;6.65;2.10;;;;;;;8.62;55.82;101827.53;5120539;28;20242;-62
2023/03/05 07:53:34;;;;;;;4.82;1.98;;;;;;;8.70;55.55;101818.53;5115752;28;20071;-64
2023/03/05 07:56:03;;;;;;;3.22;2.00;;;;;;;8.62;56.15;101819.50;5114077;28;20074;-63
2023/03/05 07:58:30;;;;;;;6.15;2.03;;;;;;;8.48;56.56;101810.44;5121788;27;20043;-63
2023/03/05 08:00:58;;;;;;;4.28;1.70;;;;;;;8.34;56.43;101813.09;5129285;27;20039;-66
2023/03/05 08:03:26;;;;;;;7.30;2.13;;;;;;;8.21;56.80;101812.88;5120415;28;20062;-62
2023/03/05 08:05:55;;;;;;;4.43;1.80;;;;;;;8.10;57.38;101808.81;5121645;28;20055;-64
2023/03/05 08:08:23;;;;;;;7.03;2.53;;;;;;;8.00;57.68;101808.22;5113344;27;20043;-64
2023/03/05 08:10:50;;;;;;;7.03;2.25;;;;;;;7.92;57.81;101810.97;5117047;28;20127;-64
2023/03/05 08:13:18;;;;;;;6.10;2.25;;;;;;;7.86;58.53;101812.53;4760775;28;10000562;-66
2023/03/05 08:15:46;;;;;;;7.32;2.28;;;;;;;7.80;59.01;101811.41;5110290;28;20130;-64
2023/03/05 08:18:17;;;;;;;3.95;1.73;;;;;;;7.76;58.56;101814.63;5119659;28;20039;-61
2023/03/05 08:20:45;;;;;;;4.10;1.52;;;;;;;7.73;58.95;101813.13;5115646;28;20044;-64
2023/03/05 08:23:14;;;;;;;7.32;2.45;;;;;;;7.68;59.06;101812.84;5109051;28;20691;-64
2023/03/05 08:25:42;;;;;;;3.15;1.73;;;;;;;7.64;59.45;101810.69;5118774;28;20048;-64
2023/03/05 08:28:09;;;;;;;5.50;2.40;;;;;;;7.60;59.74;101802.19;5105648;28;20083;-64
2023/03/05 08:30:40;;;;;;;4.88;1.85;;;;;;;7.58;59.42;101804.22;5104304;27;20048;-65
2023/03/05 08:33:07;;;;;;;4.38;1.60;;;;;;;7.56;59.17;101800.88;5119294;27;20595;-63
2023/03/05 08:35:35;;;;;;;4.75;1.80;;;;;;;7.54;59.44;101802.91;5118641;28;20163;-64
2023/03/05 08:38:03;;;;;;;5.70;2.10;;;;;;;7.52;59.75;101796.91;5111547;28;20039;-65
2023/03/05 08:40:33;;;;;;;4.65;1.80;;;;;;;7.50;60.05;101791.75;5115088;27;20449;-67
2023/03/05 08:43:01;;;;;;;5.47;1.67;;;;;;;7.49;59.76;101786.56;5120518;27;20043;-64
2023/03/05 08:45:28;;;;;;;5.13;1.75;;;;;;;7.46;59.86;101784.25;5114570;27;20298;-64
2023/03/05 08:47:56;;;;;;;3.40;1.67;;;;;;;7.43;60.53;101779.25;5114063;27;20084;-64
2023/03/05 08:50:24;;;;;;;6.05;1.80;;;;;;;7.39;60.30;101781.44;5120225;27;20061;-65
2023/03/05 08:52:52;;;;;;;3.70;1.50;;;;;;;7.38;60.58;101765.59;5116547;27;20581;-66
2023/03/05 08:55:20;;;;;;;5.35;1.63;;;;;;;7.39;60.72;101770.75;5120685;27;20054;-65
2023/03/05 08:57:49;;;;;;;3.40;1.30;;;;;;;7.38;60.77;101768.25;5125080;27;20115;-64
2023/03/05 09:00:17;;;;;;;5.97;1.75;;;;;;;7.36;59.88;101773.78;5118599;28;20071;-65
2023/03/05 09:02:45;;;;;;;4.97;1.80;;;;;;;7.35;60.03;101768.63;5115398;28;20200;-64
2023/03/05 09:05:13;;;;;;;7.40;2.33;;;;;;;7.35;60.82;101765.94;5111836;28;20044;-65
2023/03/05 09:07:41;;;;;;;4.13;1.55;;;;;;;7.36;60.44;101768.44;5121378;28;20063;-63
2023/03/05 09:10:12;;;;;;;3.53;1.42;;;;;;;7.35;60.47;101761.44;5117818;28;20040;-64
2023/03/05 09:12:40;;;;;;;3.97;1.35;;;;;;;7.33;60.63;101767.97;5110487;28;20087;-65
2023/03/05 09:15:11;;;;;;;5.50;2.35;;;;;;;7.31;60.43;101764.63;5120849;28;20563;-65
2023/03/05 09:17:40;;;;;;;5.32;1.33;;;;;;;7.25;60.19;101754.66;5116250;28;20143;-64
2023/03/05 09:20:12;;;;;;;5.55;1.20;;;;;;;7.26;60.29;101757.16;5107138;28;20044;-64
2023/03/05 09:22:40;;;;;;;4.78;1.67;;;;;;;7.29;60.65;101754.13;5115747;28;20183;-65
2023/03/05 09:25:11;;;;;;;2.13;1.40;;;;;;;7.30;60.52;101753.09;5116556;28;20083;-64
2023/03/05 09:27:39;;;;;;;4.97;1.50;;;;;;;7.28;60.26;101743.59;5116858;27;20049;-64
2023/03/05 09:30:11;;;;;;;3.88;1.13;;;;;;;7.27;60.76;101745.44;5114335;27;20054;-64
2023/03/05 09:32:39;;;;;;;5.05;1.73;;;;;;;7.27;60.84;101749.97;5119070;28;20234;-65
2023/03/05 09:35:08;;;;;;;2.63;1.15;;;;;;;7.28;59.98;101743.59;5112030;28;20113;-64
2023/03/05 09:37:36;;;;;;;3.95;1.20;;;;;;;7.28;60.09;101733.75;5118157;28;20047;-64
2023/03/05 09:40:04;;;;;;;2.53;1.17;;;;;;;7.30;60.43;101736.22;5120709;28;20149;-65
2023/03/05 09:43:03;;;;;;;2.67;1.17;;;;;;;7.29;60.36;101729.22;5117905;28;20043;-63
2023/03/05 09:45:40;;;;;;;2.97;1.30;;;;;;;7.28;60.06;101733.75;5116192;28;20131;-64
2023/03/05 09:48:17;;;;;;;4.43;1.40;;;;;;;7.32;60.21;101735.03;5117403;28;20073;-66
2023/03/05 09:50:49;;;;;;;5.97;1.52;;;;;;;7.30;60.13;101725.53;5118198;28;20059;-66
2023/03/05 09:53:33;;;;;;;3.58;1.38;;;;;;;7.34;60.04;101727.66;5112452;28;20075;-69
2023/03/05 09:56:10;;;;;;;7.63;1.88;;;;;;;7.38;60.18;101730.81;5107342;28;20051;-65
2023/03/05 09:58:40;;;;;;;3.35;1.23;;;;;;;7.36;60.05;101727.50;5108668;28;20126;-65
2023/03/05 10:01:13;;;;;;;4.70;1.40;;;;;;;7.36;59.57;101716.81;5106181;28;20483;-65
2023/03/05 10:03:51;;;;;;;3.17;1.60;;;;;;;7.37;60.16;101719.28;5111736;28;20063;-65
2023/03/05 10:06:23;;;;;;;2.97;1.80;;;;;;;7.37;60.10;101713.13;5112563;28;20150;-65
2023/03/05 10:08:57;;;;;;;3.55;1.75;;;;;;;7.35;60.32;101723.16;5116726;28;20050;-65
2023/03/05 10:11:37;;;;;;;5.32;1.70;;;;;;;7.33;59.67;101719.84;5112570;28;20071;-65
2023/03/05 10:14:06;;;;;;;6.63;2.33;;;;;;;7.34;59.33;101714.31;5112206;28;20086;-65
2023/03/05 10:16:52;;;;;;;4.78;2.47;;;;;;;7.35;59.91;101705.28;5114852;28;20048;-64
2023/03/05 10:19:35;;;;;;;6.85;2.03;;;;;;;7.39;59.70;101703.91;5114255;28;20047;-65
2023/03/05 10:22:15;;;;;;;4.50;1.50;;;;;;;7.52;59.00;101697.94;5114348;28;20051;-66
2023/03/05 10:24:57;;;;;;;8.48;2.05;;;;;;;7.64;58.66;101707.19;5107359;28;20074;-66
2023/03/05 10:27:38;;;;;;;6.80;1.70;;;;;;;7.91;57.69;101702.25;5111962;27;20146;-66
2023/03/05 10:30:23;;;;;;;5.55;1.77;;;;;;;8.11;57.14;101695.34;5106329;28;20048;-64
2023/03/05 10:32:59;;;;;;;3.65;1.98;;;;;;;8.27;56.60;101688.97;5116082;28;20055;-64
2023/03/05 10:35:52;;;;;;;5.87;1.40;;;;;;;8.43;56.11;101684.25;5113186;28;20046;-64
2023/03/05 10:38:37;;;;;;;2.85;1.30;;;;;;;8.46;55.67;101673.19;5105596;28;20081;-63
2023/03/05 10:41:13;;;;;;;5.93;2.00;;;;;;;8.40;56.54;101675.78;5118726;28;20071;-62
2023/03/05 10:43:51;;;;;;;8.70;2.80;;;;;;;8.29;55.71;101677.03;5106393;28;20470;-63
2023/03/05 10:46:22;;;;;;;8.68;1.60;;;;;;;8.19;56.06;101673.81;5114635;28;20079;-62
2023/03/05 10:48:55;;;;;;;2.90;1.35;;;;;;;8.11;56.79;101672.06;5109845;28;20044;-63
2023/03/05 10:51:33;;;;;;;1.85;1.40;;;;;;;8.03;56.43;101671.34;5114994;28;20050;-62
2023/03/05 10:54:09;;;;;;;4.25;1.30;;;;;;;7.95;57.05;101666.06;5103071;28;20048;-62
2023/03/05 10:56:37;;;;;;;4.20;1.20;;;;;;;7.91;56.50;101665.63;5114920;28;20115;-64
2023/03/05 10:59:05;;;;;;;4.47;1.60;;;;;;;7.87;57.12;101669.66;5100797;28;20155;-64
2023/03/05 11:01:33;;;;;;;4.85;1.55;;;;;;;7.83;57.52;101663.84;5114550;28;20163;-63
2023/03/05 11:04:03;;;;;;;6.53;1.52;;;;;;;7.78;57.64;101654.72;5113024;28;20150;-62
2023/03/05 11:06:34;;;;;;;6.05;1.70;;;;;;;7.69;58.27;101674.53;5118965;28;20043;-63
2023/03/05 11:09:17;;;;;;;4.57;1.50;;;;;;;7.56;58.60;101674.34;5115123;28;20052;-62
2023/03/05 11:12:02;;;;;;;4.35;1.63;;;;;;;7.42;59.92;101676.81;5109140;28;20071;-63
2023/03/05 11:14:32;;;;;;;5.63;1.58;;;;;;;7.35;60.75;101667.84;5115043;28;20089;-62
2023/03/05 11:17:01;;;;;;;5.15;1.40;;;;;;;7.38;60.81;101667.47;5115061;28;20090;-62
2023/03/05 11:19:31;;;;;;;2.53;1.30;;;;;;;7.38;61.04;101656.78;5113521;28;20123;-62
2023/03/05 11:22:14;;;;;;;4.80;1.70;;;;;;;7.38;60.75;101655.94;5104201;28;20129;-64
2023/03/05 11:24:42;;;;;;;2.80;1.20;;;;;;;7.39;61.11;101647.75;5111349;28;20130;-64
2023/03/05 11:27:26;;;;;;;2.10;1.10;;;;;;;7.42;61.17;101655.41;5112625;28;20051;-63
2023/03/05 11:29:53;;;;;;;3.53;1.00;;;;;;;7.43;61.83;101645.53;5111832;28;20084;-63
2023/03/05 11:32:24;;;;;;;2.17;1.13;;;;;;;7.42;60.97;101649.22;5119572;28;20145;-64
2023/03/05 11:34:54;;;;;;;1.55;1.02;;;;;;;7.42;61.12;101643.88;5113347;28;20067;-63
2023/03/05 11:37:25;;;;;;;1.77;1.10;;;;;;;7.44;61.02;101647.19;5112784;28;20421;-63
2023/03/05 11:40:20;;;;;;;3.22;1.30;;;;;;;7.46;60.88;101639.81;5116126;28;20044;-66
2023/03/05 11:42:55;;;;;;;2.78;1.08;;;;;;;7.48;61.30;101635.13;5121377;28;20071;-62